sensor_id;sensor_type;location;lat;lon;timestamp;P1;durP1;ratioP1;P2;durP2;ratioP2
75090;SDS011;63674;48.048;8.306;2023-04-03T00:01:24;5.40;;;2.20;;
75090;SDS011;63674;48.048;8.306;2023-04-03T00:03:52;5.53;;;2.20;;
75090;SDS011;63674;48.048;8.306;2023-04-03T00:06:22;6.05;;;2.50;;
75090;SDS011;63674;48.048;8.306;2023-04-03T00:08:51;5.32;;;1.92;;
75090;SDS011;63674;48.048;8.306;2023-04-03T00:11:20;5.07;;;2.15;;
75090;SDS011;63674;48.048;8.306;2023-04-03T00:13:49;7.18;;;2.55;;
75090;SDS011;63674;48.048;8.306;2023-04-03T00:16:19;7.03;;;2.60;;
75090;SDS011;63674;48.048;8.306;2023-04-03T00:18:47;8.93;;;3.05;;
75090;SDS011;63674;48.048;8.306;2023-04-03T00:21:16;7.38;;;3.30;;
75090;SDS011;63674;48.048;8.306;2023-04-03T00:23:44;6.32;;;2.50;;
75090;SDS011;63674;48.048;8.306;2023-04-03T00:26:13;6.05;;;3.00;;
75090;SDS011;63674;48.048;8.306;2023-04-03T00:28:42;7.13;;;2.58;;
75090;SDS011;63674;48.048;8.306;2023-04-03T00:31:10;6.47;;;2.67;;
75090;SDS011;63674;48.048;8.306;2023-04-03T00:33:43;6.13;;;2.50;;
75090;SDS011;63674;48.048;8.306;2023-04-03T00:36:12;7.15;;;2.72;;
75090;SDS011;63674;48.048;8.306;2023-04-03T00:38:41;6.18;;;2.90;;
75090;SDS011;63674;48.048;8.306;2023-04-03T00:41:09;6.75;;;3.20;;
75090;SDS011;63674;48.048;8.306;2023-04-03T00:43:38;7.38;;;2.90;;
75090;SDS011;63674;48.048;8.306;2023-04-03T00:46:07;6.78;;;2.60;;
75090;SDS011;63674;48.048;8.306;2023-04-03T00:48:37;6.53;;;3.05;;
75090;SDS011;63674;48.048;8.306;2023-04-03T00:51:11;6.63;;;3.33;;
75090;SDS011;63674;48.048;8.306;2023-04-03T00:53:43;6.68;;;3.30;;
75090;SDS011;63674;48.048;8.306;2023-04-03T00:56:16;6.03;;;2.85;;
75090;SDS011;63674;48.048;8.306;2023-04-03T00:58:50;6.35;;;2.92;;
75090;SDS011;63674;48.048;8.306;2023-04-03T01:01:24;6.63;;;2.78;;
75090;SDS011;63674;48.048;8.306;2023-04-03T01:03:55;5.38;;;2.35;;
75090;SDS011;63674;48.048;8.306;2023-04-03T01:06:27;6.00;;;2.88;;
75090;SDS011;63674;48.048;8.306;2023-04-03T01:09:17;5.50;;;2.40;;
75090;SDS011;63674;48.048;8.306;2023-04-03T01:11:46;6.88;;;2.63;;
75090;SDS011;63674;48.048;8.306;2023-04-03T01:14:14;5.50;;;2.60;;
75090;SDS011;63674;48.048;8.306;2023-04-03T01:16:50;6.80;;;3.08;;
75090;SDS011;63674;48.048;8.306;2023-04-03T01:19:20;6.57;;;3.00;;
75090;SDS011;63674;48.048;8.306;2023-04-03T01:21:58;7.97;;;3.45;;
75090;SDS011;63674;48.048;8.306;2023-04-03T01:24:37;6.57;;;2.67;;
75090;SDS011;63674;48.048;8.306;2023-04-03T01:27:06;6.03;;;2.92;;
75090;SDS011;63674;48.048;8.306;2023-04-03T01:29:38;7.97;;;3.45;;
75090;SDS011;63674;48.048;8.306;2023-04-03T01:32:11;7.90;;;3.15;;
75090;SDS011;63674;48.048;8.306;2023-04-03T01:34:40;7.82;;;3.67;;
75090;SDS011;63674;48.048;8.306;2023-04-03T01:37:09;6.93;;;3.45;;
75090;SDS011;63674;48.048;8.306;2023-04-03T01:39:37;7.28;;;3.25;;
75090;SDS011;63674;48.048;8.306;2023-04-03T01:42:06;8.27;;;3.65;;
75090;SDS011;63674;48.048;8.306;2023-04-03T01:44:34;7.72;;;3.40;;
75090;SDS011;63674;48.048;8.306;2023-04-03T01:47:04;6.93;;;3.20;;
75090;SDS011;63674;48.048;8.306;2023-04-03T01:49:35;6.25;;;2.80;;
75090;SDS011;63674;48.048;8.306;2023-04-03T01:52:03;6.75;;;3.05;;
75090;SDS011;63674;48.048;8.306;2023-04-03T01:54:32;6.35;;;3.28;;
75090;SDS011;63674;48.048;8.306;2023-04-03T01:57:01;6.50;;;3.00;;
75090;SDS011;63674;48.048;8.306;2023-04-03T01:59:29;6.82;;;3.28;;
75090;SDS011;63674;48.048;8.306;2023-04-03T02:01:58;6.38;;;3.20;;
75090;SDS011;63674;48.048;8.306;2023-04-03T02:04:27;6.65;;;3.20;;
75090;SDS011;63674;48.048;8.306;2023-04-03T02:06:57;6.82;;;3.22;;
75090;SDS011;63674;48.048;8.306;2023-04-03T02:09:26;6.28;;;2.95;;
75090;SDS011;63674;48.048;8.306;2023-04-03T02:11:54;6.10;;;3.03;;
75090;SDS011;63674;48.048;8.306;2023-04-03T02:14:23;7.50;;;3.05;;
75090;SDS011;63674;48.048;8.306;2023-04-03T02:16:53;6.90;;;3.28;;
75090;SDS011;63674;48.048;8.306;2023-04-03T02:19:22;6.25;;;3.00;;
75090;SDS011;63674;48.048;8.306;2023-04-03T02:21:51;7.10;;;3.25;;
75090;SDS011;63674;48.048;8.306;2023-04-03T02:24:21;8.00;;;3.30;;
75090;SDS011;63674;48.048;8.306;2023-04-03T02:26:50;6.10;;;3.00;;
75090;SDS011;63674;48.048;8.306;2023-04-03T02:29:19;6.57;;;3.10;;
75090;SDS011;63674;48.048;8.306;2023-04-03T02:31:48;7.20;;;3.25;;
75090;SDS011;63674;48.048;8.306;2023-04-03T02:34:16;6.68;;;2.90;;
75090;SDS011;63674;48.048;8.306;2023-04-03T02:36:45;7.10;;;3.00;;
75090;SDS011;63674;48.048;8.306;2023-04-03T02:39:14;7.32;;;3.42;;
75090;SDS011;63674;48.048;8.306;2023-04-03T02:41:44;7.20;;;2.90;;
75090;SDS011;63674;48.048;8.306;2023-04-03T02:44:12;6.45;;;3.03;;
75090;SDS011;63674;48.048;8.306;2023-04-03T02:46:41;7.43;;;3.20;;
75090;SDS011;63674;48.048;8.306;2023-04-03T02:49:10;6.28;;;3.13;;
75090;SDS011;63674;48.048;8.306;2023-04-03T02:51:38;7.72;;;2.92;;
75090;SDS011;63674;48.048;8.306;2023-04-03T02:54:07;6.13;;;2.97;;
75090;SDS011;63674;48.048;8.306;2023-04-03T02:56:36;6.88;;;2.88;;
75090;SDS011;63674;48.048;8.306;2023-04-03T02:59:06;6.68;;;3.10;;
75090;SDS011;63674;48.048;8.306;2023-04-03T03:01:34;6.93;;;3.40;;
75090;SDS011;63674;48.048;8.306;2023-04-03T03:04:03;6.60;;;3.30;;
75090;SDS011;63674;48.048;8.306;2023-04-03T03:06:32;8.75;;;3.35;;
75090;SDS011;63674;48.048;8.306;2023-04-03T03:09:00;7.53;;;3.20;;
75090;SDS011;63674;48.048;8.306;2023-04-03T03:11:30;7.25;;;3.22;;
75090;SDS011;63674;48.048;8.306;2023-04-03T03:13:58;7.25;;;3.13;;
75090;SDS011;63674;48.048;8.306;2023-04-03T03:16:28;7.18;;;3.28;;
75090;SDS011;63674;48.048;8.306;2023-04-03T03:18:58;6.47;;;3.15;;
75090;SDS011;63674;48.048;8.306;2023-04-03T03:21:29;7.15;;;3.17;;
75090;SDS011;63674;48.048;8.306;2023-04-03T03:23:58;6.82;;;3.30;;
75090;SDS011;63674;48.048;8.306;2023-04-03T03:26:26;6.95;;;3.47;;
75090;SDS011;63674;48.048;8.306;2023-04-03T03:28:55;7.93;;;2.83;;
75090;SDS011;63674;48.048;8.306;2023-04-03T03:31:24;6.40;;;2.80;;
75090;SDS011;63674;48.048;8.306;2023-04-03T03:33:54;6.97;;;3.17;;
75090;SDS011;63674;48.048;8.306;2023-04-03T03:36:23;6.20;;;3.40;;
75090;SDS011;63674;48.048;8.306;2023-04-03T03:38:51;6.93;;;3.30;;
75090;SDS011;63674;48.048;8.306;2023-04-03T03:41:20;8.48;;;3.38;;
75090;SDS011;63674;48.048;8.306;2023-04-03T03:43:49;6.43;;;3.05;;
75090;SDS011;63674;48.048;8.306;2023-04-03T03:46:17;6.60;;;3.03;;
75090;SDS011;63674;48.048;8.306;2023-04-03T03:48:46;6.25;;;3.10;;
75090;SDS011;63674;48.048;8.306;2023-04-03T03:51:16;8.45;;;3.58;;
75090;SDS011;63674;48.048;8.306;2023-04-03T03:53:44;8.15;;;3.67;;
75090;SDS011;63674;48.048;8.306;2023-04-03T03:56:13;7.68;;;3.63;;
75090;SDS011;63674;48.048;8.306;2023-04-03T03:58:41;7.40;;;3.47;;
75090;SDS011;63674;48.048;8.306;2023-04-03T04:01:10;6.75;;;3.30;;
75090;SDS011;63674;48.048;8.306;2023-04-03T04:03:38;7.75;;;3.80;;
75090;SDS011;63674;48.048;8.306;2023-04-03T04:06:07;7.50;;;3.53;;
75090;SDS011;63674;48.048;8.306;2023-04-03T04:08:37;7.50;;;3.95;;
75090;SDS011;63674;48.048;8.306;2023-04-03T04:11:05;8.55;;;4.53;;
75090;SDS011;63674;48.048;8.306;2023-04-03T04:13:34;10.30;;;4.60;;
75090;SDS011;63674;48.048;8.306;2023-04-03T04:16:03;9.23;;;4.75;;
75090;SDS011;63674;48.048;8.306;2023-04-03T04:18:32;8.95;;;4.70;;
75090;SDS011;63674;48.048;8.306;2023-04-03T04:21:01;8.93;;;4.63;;
75090;SDS011;63674;48.048;8.306;2023-04-03T04:23:30;9.25;;;4.53;;
75090;SDS011;63674;48.048;8.306;2023-04-03T04:26:00;10.50;;;4.93;;
75090;SDS011;63674;48.048;8.306;2023-04-03T04:28:28;12.18;;;5.13;;
75090;SDS011;63674;48.048;8.306;2023-04-03T04:30:57;10.90;;;5.32;;
75090;SDS011;63674;48.048;8.306;2023-04-03T04:33:25;12.38;;;5.20;;
75090;SDS011;63674;48.048;8.306;2023-04-03T04:35:54;11.00;;;5.47;;
75090;SDS011;63674;48.048;8.306;2023-04-03T04:38:23;9.43;;;4.93;;
75090;SDS011;63674;48.048;8.306;2023-04-03T04:40:51;10.15;;;5.05;;
75090;SDS011;63674;48.048;8.306;2023-04-03T04:43:21;9.75;;;5.10;;
75090;SDS011;63674;48.048;8.306;2023-04-03T04:45:59;11.98;;;5.68;;
75090;SDS011;63674;48.048;8.306;2023-04-03T04:48:29;10.48;;;5.72;;
75090;SDS011;63674;48.048;8.306;2023-04-03T04:50:58;10.80;;;5.43;;
75090;SDS011;63674;48.048;8.306;2023-04-03T04:53:26;10.95;;;5.85;;
75090;SDS011;63674;48.048;8.306;2023-04-03T04:55:55;9.50;;;4.78;;
75090;SDS011;63674;48.048;8.306;2023-04-03T04:58:25;10.23;;;5.30;;
75090;SDS011;63674;48.048;8.306;2023-04-03T05:00:58;9.95;;;5.35;;
75090;SDS011;63674;48.048;8.306;2023-04-03T05:03:30;10.65;;;5.63;;
75090;SDS011;63674;48.048;8.306;2023-04-03T05:05:59;10.85;;;6.25;;
75090;SDS011;63674;48.048;8.306;2023-04-03T05:08:28;10.85;;;5.20;;
75090;SDS011;63674;48.048;8.306;2023-04-03T05:10:57;10.18;;;5.28;;
75090;SDS011;63674;48.048;8.306;2023-04-03T05:13:27;10.85;;;5.70;;
75090;SDS011;63674;48.048;8.306;2023-04-03T05:15:55;13.18;;;6.03;;
75090;SDS011;63674;48.048;8.306;2023-04-03T05:18:24;9.05;;;4.72;;
75090;SDS011;63674;48.048;8.306;2023-04-03T05:20:53;10.38;;;5.05;;
75090;SDS011;63674;48.048;8.306;2023-04-03T05:23:21;9.48;;;4.80;;
75090;SDS011;63674;48.048;8.306;2023-04-03T05:25:50;10.55;;;5.32;;
75090;SDS011;63674;48.048;8.306;2023-04-03T05:28:19;10.90;;;5.32;;
75090;SDS011;63674;48.048;8.306;2023-04-03T05:30:53;13.15;;;5.63;;
75090;SDS011;63674;48.048;8.306;2023-04-03T05:33:22;9.13;;;4.88;;
75090;SDS011;63674;48.048;8.306;2023-04-03T05:35:52;10.15;;;4.93;;
75090;SDS011;63674;48.048;8.306;2023-04-03T05:38:22;9.05;;;4.57;;
75090;SDS011;63674;48.048;8.306;2023-04-03T05:40:51;8.63;;;4.38;;
75090;SDS011;63674;48.048;8.306;2023-04-03T05:43:20;8.80;;;4.55;;
75090;SDS011;63674;48.048;8.306;2023-04-03T05:45:48;8.77;;;4.53;;
75090;SDS011;63674;48.048;8.306;2023-04-03T05:48:18;11.20;;;4.93;;
75090;SDS011;63674;48.048;8.306;2023-04-03T05:50:47;11.00;;;6.18;;
75090;SDS011;63674;48.048;8.306;2023-04-03T05:53:16;11.75;;;4.88;;
75090;SDS011;63674;48.048;8.306;2023-04-03T05:55:49;11.82;;;4.90;;
75090;SDS011;63674;48.048;8.306;2023-04-03T05:58:18;9.32;;;4.43;;
75090;SDS011;63674;48.048;8.306;2023-04-03T06:00:46;8.95;;;4.68;;
75090;SDS011;63674;48.048;8.306;2023-04-03T06:03:14;9.32;;;4.32;;
75090;SDS011;63674;48.048;8.306;2023-04-03T06:05:45;8.65;;;4.10;;
75090;SDS011;63674;48.048;8.306;2023-04-03T06:08:13;8.65;;;4.55;;
75090;SDS011;63674;48.048;8.306;2023-04-03T06:10:42;9.13;;;4.57;;
75090;SDS011;63674;48.048;8.306;2023-04-03T06:13:11;9.25;;;4.65;;
75090;SDS011;63674;48.048;8.306;2023-04-03T06:15:40;9.23;;;4.45;;
75090;SDS011;63674;48.048;8.306;2023-04-03T06:18:08;10.18;;;4.55;;
75090;SDS011;63674;48.048;8.306;2023-04-03T06:20:37;10.10;;;5.03;;
75090;SDS011;63674;48.048;8.306;2023-04-03T06:23:07;9.02;;;4.03;;
75090;SDS011;63674;48.048;8.306;2023-04-03T06:25:36;9.68;;;4.65;;
75090;SDS011;63674;48.048;8.306;2023-04-03T06:28:05;9.85;;;5.00;;
75090;SDS011;63674;48.048;8.306;2023-04-03T06:30:35;10.13;;;4.63;;
75090;SDS011;63674;48.048;8.306;2023-04-03T06:33:05;15.63;;;8.20;;
75090;SDS011;63674;48.048;8.306;2023-04-03T06:35:33;10.82;;;4.50;;
75090;SDS011;63674;48.048;8.306;2023-04-03T06:38:03;9.10;;;4.47;;
75090;SDS011;63674;48.048;8.306;2023-04-03T06:40:38;9.93;;;4.75;;
75090;SDS011;63674;48.048;8.306;2023-04-03T06:43:06;9.63;;;4.25;;
75090;SDS011;63674;48.048;8.306;2023-04-03T06:45:35;9.05;;;4.38;;
75090;SDS011;63674;48.048;8.306;2023-04-03T06:48:04;10.27;;;4.68;;
75090;SDS011;63674;48.048;8.306;2023-04-03T06:50:33;13.25;;;5.90;;
75090;SDS011;63674;48.048;8.306;2023-04-03T06:53:02;9.90;;;4.65;;
75090;SDS011;63674;48.048;8.306;2023-04-03T06:55:30;20.48;;;8.43;;
75090;SDS011;63674;48.048;8.306;2023-04-03T06:58:00;9.05;;;4.57;;
75090;SDS011;63674;48.048;8.306;2023-04-03T07:00:30;10.48;;;4.60;;
75090;SDS011;63674;48.048;8.306;2023-04-03T07:02:59;10.27;;;4.75;;
75090;SDS011;63674;48.048;8.306;2023-04-03T07:05:28;10.43;;;4.60;;
75090;SDS011;63674;48.048;8.306;2023-04-03T07:07:57;10.93;;;4.40;;
75090;SDS011;63674;48.048;8.306;2023-04-03T07:10:26;8.65;;;4.15;;
75090;SDS011;63674;48.048;8.306;2023-04-03T07:12:54;9.63;;;4.20;;
75090;SDS011;63674;48.048;8.306;2023-04-03T07:15:24;9.60;;;4.45;;
75090;SDS011;63674;48.048;8.306;2023-04-03T07:17:52;9.02;;;4.25;;
75090;SDS011;63674;48.048;8.306;2023-04-03T07:20:22;8.15;;;4.00;;
75090;SDS011;63674;48.048;8.306;2023-04-03T07:22:51;10.77;;;5.18;;
75090;SDS011;63674;48.048;8.306;2023-04-03T07:25:19;8.40;;;4.20;;
75090;SDS011;63674;48.048;8.306;2023-04-03T07:27:48;8.90;;;4.25;;
75090;SDS011;63674;48.048;8.306;2023-04-03T07:30:17;8.90;;;4.50;;
75090;SDS011;63674;48.048;8.306;2023-04-03T07:32:47;8.88;;;4.55;;
75090;SDS011;63674;48.048;8.306;2023-04-03T07:35:16;9.98;;;4.90;;
75090;SDS011;63674;48.048;8.306;2023-04-03T07:37:45;8.93;;;4.60;;
75090;SDS011;63674;48.048;8.306;2023-04-03T07:40:15;10.95;;;4.72;;
75090;SDS011;63674;48.048;8.306;2023-04-03T07:42:46;10.18;;;4.70;;
75090;SDS011;63674;48.048;8.306;2023-04-03T07:45:14;8.75;;;4.47;;
75090;SDS011;63674;48.048;8.306;2023-04-03T07:47:43;8.25;;;4.32;;
75090;SDS011;63674;48.048;8.306;2023-04-03T07:50:13;10.38;;;4.20;;
75090;SDS011;63674;48.048;8.306;2023-04-03T07:52:43;8.77;;;4.30;;
75090;SDS011;63674;48.048;8.306;2023-04-03T07:55:12;8.95;;;4.22;;
75090;SDS011;63674;48.048;8.306;2023-04-03T07:58:02;8.68;;;4.72;;
75090;SDS011;63674;48.048;8.306;2023-04-03T08:00:31;10.73;;;5.20;;
75090;SDS011;63674;48.048;8.306;2023-04-03T08:03:00;11.48;;;5.22;;
75090;SDS011;63674;48.048;8.306;2023-04-03T08:05:30;10.48;;;4.68;;
75090;SDS011;63674;48.048;8.306;2023-04-03T08:07:59;11.20;;;4.78;;
75090;SDS011;63674;48.048;8.306;2023-04-03T08:10:29;9.93;;;5.13;;
75090;SDS011;63674;48.048;8.306;2023-04-03T08:12:58;10.35;;;5.60;;
75090;SDS011;63674;48.048;8.306;2023-04-03T08:15:26;9.63;;;4.65;;
75090;SDS011;63674;48.048;8.306;2023-04-03T08:17:55;9.95;;;4.75;;
75090;SDS011;63674;48.048;8.306;2023-04-03T08:20:24;11.10;;;4.40;;
75090;SDS011;63674;48.048;8.306;2023-04-03T08:22:54;7.97;;;4.22;;
75090;SDS011;63674;48.048;8.306;2023-04-03T08:25:23;9.10;;;4.20;;
75090;SDS011;63674;48.048;8.306;2023-04-03T08:27:51;10.15;;;4.75;;
75090;SDS011;63674;48.048;8.306;2023-04-03T08:30:20;10.35;;;4.32;;
75090;SDS011;63674;48.048;8.306;2023-04-03T08:32:48;8.95;;;4.25;;
75090;SDS011;63674;48.048;8.306;2023-04-03T08:35:17;13.90;;;6.20;;
75090;SDS011;63674;48.048;8.306;2023-04-03T08:37:46;9.02;;;3.85;;
75090;SDS011;63674;48.048;8.306;2023-04-03T08:40:16;8.07;;;4.07;;
75090;SDS011;63674;48.048;8.306;2023-04-03T08:42:48;7.03;;;3.22;;
75090;SDS011;63674;48.048;8.306;2023-04-03T08:45:33;7.50;;;3.17;;
75090;SDS011;63674;48.048;8.306;2023-04-03T08:48:14;7.03;;;3.03;;
75090;SDS011;63674;48.048;8.306;2023-04-03T08:50:46;8.18;;;3.65;;
75090;SDS011;63674;48.048;8.306;2023-04-03T08:53:19;6.95;;;2.90;;
75090;SDS011;63674;48.048;8.306;2023-04-03T08:55:52;5.63;;;2.50;;
75090;SDS011;63674;48.048;8.306;2023-04-03T08:58:23;6.05;;;2.42;;
75090;SDS011;63674;48.048;8.306;2023-04-03T09:00:55;7.53;;;2.92;;
75090;SDS011;63674;48.048;8.306;2023-04-03T09:03:29;5.97;;;2.85;;
75090;SDS011;63674;48.048;8.306;2023-04-03T09:06:02;6.57;;;2.58;;
75090;SDS011;63674;48.048;8.306;2023-04-03T09:08:34;5.60;;;2.55;;
75090;SDS011;63674;48.048;8.306;2023-04-03T09:11:14;7.25;;;2.92;;
75090;SDS011;63674;48.048;8.306;2023-04-03T09:13:49;6.32;;;2.60;;
75090;SDS011;63674;48.048;8.306;2023-04-03T09:16:32;7.32;;;2.92;;
75090;SDS011;63674;48.048;8.306;2023-04-03T09:19:12;7.28;;;2.45;;
75090;SDS011;63674;48.048;8.306;2023-04-03T09:21:55;8.82;;;3.30;;
75090;SDS011;63674;48.048;8.306;2023-04-03T09:24:24;9.38;;;3.72;;
75090;SDS011;63674;48.048;8.306;2023-04-03T09:26:56;8.23;;;3.28;;
75090;SDS011;63674;48.048;8.306;2023-04-03T09:29:28;6.72;;;3.10;;
75090;SDS011;63674;48.048;8.306;2023-04-03T09:31:59;9.05;;;3.55;;
75090;SDS011;63674;48.048;8.306;2023-04-03T09:34:31;6.43;;;2.92;;
75090;SDS011;63674;48.048;8.306;2023-04-03T09:37:04;6.88;;;2.65;;
75090;SDS011;63674;48.048;8.306;2023-04-03T09:39:48;7.20;;;2.53;;
75090;SDS011;63674;48.048;8.306;2023-04-03T09:42:21;5.82;;;2.50;;
75090;SDS011;63674;48.048;8.306;2023-04-03T09:44:53;6.63;;;2.53;;
75090;SDS011;63674;48.048;8.306;2023-04-03T09:47:24;7.13;;;2.80;;
75090;SDS011;63674;48.048;8.306;2023-04-03T09:50:08;8.25;;;2.80;;
75090;SDS011;63674;48.048;8.306;2023-04-03T09:52:48;7.25;;;3.10;;
75090;SDS011;63674;48.048;8.306;2023-04-03T09:55:19;6.50;;;2.90;;
75090;SDS011;63674;48.048;8.306;2023-04-03T09:57:55;6.32;;;2.75;;
75090;SDS011;63674;48.048;8.306;2023-04-03T10:00:28;5.57;;;2.38;;
75090;SDS011;63674;48.048;8.306;2023-04-03T10:03:02;5.82;;;2.80;;
75090;SDS011;63674;48.048;8.306;2023-04-03T10:05:33;6.35;;;3.00;;
75090;SDS011;63674;48.048;8.306;2023-04-03T10:08:10;8.48;;;3.97;;
75090;SDS011;63674;48.048;8.306;2023-04-03T10:10:48;6.28;;;2.30;;
75090;SDS011;63674;48.048;8.306;2023-04-03T10:13:37;10.32;;;5.85;;
75090;SDS011;63674;48.048;8.306;2023-04-03T10:16:20;8.77;;;3.92;;
75090;SDS011;63674;48.048;8.306;2023-04-03T10:19:00;7.72;;;3.00;;
75090;SDS011;63674;48.048;8.306;2023-04-03T10:21:54;7.47;;;3.10;;
75090;SDS011;63674;48.048;8.306;2023-04-03T10:24:28;6.95;;;2.95;;
75090;SDS011;63674;48.048;8.306;2023-04-03T10:27:05;6.63;;;2.90;;
75090;SDS011;63674;48.048;8.306;2023-04-03T10:29:43;6.05;;;2.50;;
75090;SDS011;63674;48.048;8.306;2023-04-03T10:32:27;7.47;;;2.63;;
75090;SDS011;63674;48.048;8.306;2023-04-03T10:35:14;6.90;;;2.78;;
75090;SDS011;63674;48.048;8.306;2023-04-03T10:37:54;6.88;;;2.97;;
75090;SDS011;63674;48.048;8.306;2023-04-03T10:40:30;7.85;;;3.10;;
75090;SDS011;63674;48.048;8.306;2023-04-03T10:43:13;6.90;;;2.97;;
75090;SDS011;63674;48.048;8.306;2023-04-03T10:45:53;5.97;;;2.80;;
75090;SDS011;63674;48.048;8.306;2023-04-03T10:48:34;6.88;;;2.97;;
75090;SDS011;63674;48.048;8.306;2023-04-03T10:51:23;6.93;;;3.17;;
75090;SDS011;63674;48.048;8.306;2023-04-03T10:53:58;6.20;;;2.97;;
75090;SDS011;63674;48.048;8.306;2023-04-03T10:56:35;6.55;;;3.00;;
75090;SDS011;63674;48.048;8.306;2023-04-03T10:59:12;7.28;;;3.28;;
75090;SDS011;63674;48.048;8.306;2023-04-03T11:01:49;6.57;;;3.03;;
75090;SDS011;63674;48.048;8.306;2023-04-03T11:04:22;7.30;;;3.30;;
75090;SDS011;63674;48.048;8.306;2023-04-03T11:06:57;6.22;;;2.83;;
75090;SDS011;63674;48.048;8.306;2023-04-03T11:09:31;6.28;;;2.80;;
75090;SDS011;63674;48.048;8.306;2023-04-03T11:12:05;6.07;;;2.65;;
75090;SDS011;63674;48.048;8.306;2023-04-03T11:14:46;7.65;;;4.50;;
75090;SDS011;63674;48.048;8.306;2023-04-03T11:17:23;6.15;;;2.58;;
75090;SDS011;63674;48.048;8.306;2023-04-03T11:20:03;7.55;;;3.20;;
75090;SDS011;63674;48.048;8.306;2023-04-03T11:22:38;6.35;;;3.00;;
75090;SDS011;63674;48.048;8.306;2023-04-03T11:25:14;7.95;;;3.53;;
75090;SDS011;63674;48.048;8.306;2023-04-03T11:27:49;5.82;;;2.97;;
75090;SDS011;63674;48.048;8.306;2023-04-03T11:30:25;5.82;;;2.78;;
75090;SDS011;63674;48.048;8.306;2023-04-03T11:33:17;7.65;;;3.33;;
75090;SDS011;63674;48.048;8.306;2023-04-03T11:35:53;6.88;;;3.28;;
75090;SDS011;63674;48.048;8.306;2023-04-03T11:38:36;7.40;;;3.15;;
75090;SDS011;63674;48.048;8.306;2023-04-03T11:41:10;6.18;;;2.75;;
75090;SDS011;63674;48.048;8.306;2023-04-03T11:43:41;6.20;;;2.80;;
75090;SDS011;63674;48.048;8.306;2023-04-03T11:46:30;6.22;;;3.10;;
75090;SDS011;63674;48.048;8.306;2023-04-03T11:55:52;7.35;;;3.08;;
75090;SDS011;63674;48.048;8.306;2023-04-03T11:58:30;7.95;;;3.20;;
75090;SDS011;63674;48.048;8.306;2023-04-03T12:01:04;7.55;;;2.88;;
75090;SDS011;63674;48.048;8.306;2023-04-03T12:06:48;7.20;;;3.08;;
75090;SDS011;63674;48.048;8.306;2023-04-03T12:09:27;7.00;;;3.28;;
75090;SDS011;63674;48.048;8.306;2023-04-03T12:15:18;6.88;;;2.90;;
75090;SDS011;63674;48.048;8.306;2023-04-03T12:21:12;6.60;;;2.92;;
75090;SDS011;63674;48.048;8.306;2023-04-03T12:24:03;7.13;;;2.90;;
75090;SDS011;63674;48.048;8.306;2023-04-03T12:27:01;6.97;;;3.00;;
75090;SDS011;63674;48.048;8.306;2023-04-03T12:29:38;6.25;;;3.13;;
75090;SDS011;63674;48.048;8.306;2023-04-03T12:32:17;6.80;;;3.00;;
75090;SDS011;63674;48.048;8.306;2023-04-03T12:35:10;5.53;;;2.50;;
75090;SDS011;63674;48.048;8.306;2023-04-03T12:37:51;6.07;;;2.55;;
75090;SDS011;63674;48.048;8.306;2023-04-03T12:41:27;6.07;;;2.92;;
75090;SDS011;63674;48.048;8.306;2023-04-03T12:47:26;6.43;;;3.10;;
75090;SDS011;63674;48.048;8.306;2023-04-03T12:50:00;5.63;;;2.58;;
75090;SDS011;63674;48.048;8.306;2023-04-03T12:52:37;7.30;;;3.00;;
75090;SDS011;63674;48.048;8.306;2023-04-03T12:55:14;6.55;;;2.90;;
75090;SDS011;63674;48.048;8.306;2023-04-03T12:57:46;6.05;;;2.60;;
75090;SDS011;63674;48.048;8.306;2023-04-03T13:03:06;8.13;;;2.95;;
75090;SDS011;63674;48.048;8.306;2023-04-03T13:05:49;8.23;;;2.80;;
75090;SDS011;63674;48.048;8.306;2023-04-03T13:08:18;6.35;;;3.00;;
75090;SDS011;63674;48.048;8.306;2023-04-03T13:10:50;6.35;;;2.83;;
75090;SDS011;63674;48.048;8.306;2023-04-03T13:13:24;6.57;;;2.67;;
75090;SDS011;63674;48.048;8.306;2023-04-03T13:15:53;6.85;;;2.78;;
75090;SDS011;63674;48.048;8.306;2023-04-03T13:18:23;8.05;;;2.97;;
75090;SDS011;63674;48.048;8.306;2023-04-03T13:20:56;6.60;;;3.03;;
75090;SDS011;63674;48.048;8.306;2023-04-03T13:23:34;7.68;;;3.30;;
75090;SDS011;63674;48.048;8.306;2023-04-03T13:26:06;6.53;;;3.00;;
75090;SDS011;63674;48.048;8.306;2023-04-03T13:28:38;6.45;;;2.65;;
75090;SDS011;63674;48.048;8.306;2023-04-03T13:31:09;6.63;;;2.80;;
75090;SDS011;63674;48.048;8.306;2023-04-03T13:33:54;7.72;;;2.60;;
75090;SDS011;63674;48.048;8.306;2023-04-03T13:36:27;8.85;;;3.03;;
75090;SDS011;63674;48.048;8.306;2023-04-03T13:39:01;6.75;;;3.00;;
75090;SDS011;63674;48.048;8.306;2023-04-03T13:41:33;6.93;;;3.38;;
75090;SDS011;63674;48.048;8.306;2023-04-03T13:47:00;6.00;;;2.92;;
75090;SDS011;63674;48.048;8.306;2023-04-03T13:49:44;6.43;;;2.60;;
75090;SDS011;63674;48.048;8.306;2023-04-03T13:52:26;6.07;;;2.80;;
75090;SDS011;63674;48.048;8.306;2023-04-03T13:54:59;9.40;;;3.30;;
75090;SDS011;63674;48.048;8.306;2023-04-03T13:57:47;8.38;;;3.55;;
75090;SDS011;63674;48.048;8.306;2023-04-03T14:00:21;7.30;;;2.90;;
75090;SDS011;63674;48.048;8.306;2023-04-03T14:02:57;6.65;;;2.90;;
75090;SDS011;63674;48.048;8.306;2023-04-03T14:05:26;8.35;;;3.33;;
75090;SDS011;63674;48.048;8.306;2023-04-03T14:07:55;7.65;;;3.55;;
75090;SDS011;63674;48.048;8.306;2023-04-03T14:10:23;6.75;;;3.03;;
75090;SDS011;63674;48.048;8.306;2023-04-03T14:12:52;6.43;;;3.03;;
75090;SDS011;63674;48.048;8.306;2023-04-03T14:15:23;6.40;;;2.95;;
75090;SDS011;63674;48.048;8.306;2023-04-03T14:17:55;7.65;;;3.40;;
75090;SDS011;63674;48.048;8.306;2023-04-03T14:20:26;7.68;;;3.35;;
75090;SDS011;63674;48.048;8.306;2023-04-03T14:22:55;6.32;;;3.00;;
75090;SDS011;63674;48.048;8.306;2023-04-03T14:25:24;8.90;;;3.42;;
75090;SDS011;63674;48.048;8.306;2023-04-03T14:27:54;6.15;;;2.63;;
75090;SDS011;63674;48.048;8.306;2023-04-03T14:30:25;5.90;;;2.97;;
75090;SDS011;63674;48.048;8.306;2023-04-03T14:32:56;6.15;;;2.60;;
75090;SDS011;63674;48.048;8.306;2023-04-03T14:35:26;6.65;;;3.00;;
75090;SDS011;63674;48.048;8.306;2023-04-03T14:37:55;6.00;;;2.83;;
75090;SDS011;63674;48.048;8.306;2023-04-03T14:40:25;6.55;;;2.70;;
75090;SDS011;63674;48.048;8.306;2023-04-03T14:42:54;5.78;;;2.72;;
75090;SDS011;63674;48.048;8.306;2023-04-03T14:45:25;5.47;;;2.30;;
75090;SDS011;63674;48.048;8.306;2023-04-03T14:47:55;6.72;;;3.10;;
75090;SDS011;63674;48.048;8.306;2023-04-03T14:50:25;7.10;;;2.95;;
75090;SDS011;63674;48.048;8.306;2023-04-03T14:52:56;6.60;;;3.10;;
75090;SDS011;63674;48.048;8.306;2023-04-03T14:55:26;7.90;;;2.88;;
75090;SDS011;63674;48.048;8.306;2023-04-03T14:57:55;7.47;;;2.90;;
75090;SDS011;63674;48.048;8.306;2023-04-03T15:00:25;6.22;;;2.72;;
75090;SDS011;63674;48.048;8.306;2023-04-03T15:02:54;5.38;;;2.42;;
75090;SDS011;63674;48.048;8.306;2023-04-03T15:05:23;6.18;;;2.55;;
75090;SDS011;63674;48.048;8.306;2023-04-03T15:07:52;6.38;;;2.47;;
75090;SDS011;63674;48.048;8.306;2023-04-03T15:10:27;6.55;;;2.65;;
75090;SDS011;63674;48.048;8.306;2023-04-03T15:12:58;7.13;;;2.90;;
75090;SDS011;63674;48.048;8.306;2023-04-03T15:15:29;9.20;;;3.83;;
75090;SDS011;63674;48.048;8.306;2023-04-03T15:17:58;17.45;;;6.80;;
75090;SDS011;63674;48.048;8.306;2023-04-03T15:20:27;6.75;;;3.33;;
75090;SDS011;63674;48.048;8.306;2023-04-03T15:23:00;5.82;;;2.70;;
75090;SDS011;63674;48.048;8.306;2023-04-03T15:25:29;8.98;;;3.80;;
75090;SDS011;63674;48.048;8.306;2023-04-03T15:27:58;6.47;;;2.75;;
75090;SDS011;63674;48.048;8.306;2023-04-03T15:30:28;5.53;;;2.40;;
75090;SDS011;63674;48.048;8.306;2023-04-03T15:32:57;7.60;;;2.75;;
75090;SDS011;63674;48.048;8.306;2023-04-03T15:35:26;8.85;;;4.30;;
75090;SDS011;63674;48.048;8.306;2023-04-03T15:37:54;6.50;;;2.90;;
75090;SDS011;63674;48.048;8.306;2023-04-03T15:40:23;8.27;;;3.40;;